Time;durP1;ratioP1;P1;durP2;ratioP2;P2;SDS_P1;SDS_P2;PMS_P1;PMS_P2;Temp;Humidity;BMP_temperature;BMP_pressure;BME280_temperature;BME280_humidity;BME280_pressure;Samples;Min_cycle;Max_cycle;Signal;HPM_P1;HPM_P2
2022/10/21 00:02:27;;;;;;;;;7.00;7.00;;;;;22.11;48.43;101487.66;105469;1298;19120;-53
2022/10/21 00:04:54;;;;;;;;;7.00;7.00;;;;;22.10;48.30;101474.89;105519;1291;19309;-57
2022/10/21 00:07:21;;;;;;;;;7.00;7.00;;;;;22.11;48.10;101473.84;105562;1282;18497;-53
2022/10/21 00:09:48;;;;;;;;;9.50;9.00;;;;;22.11;48.30;101467.73;105637;1284;19905;-56
2022/10/21 00:12:16;;;;;;;;;;;;;;;22.11;48.37;101470.63;105619;1297;19178;-54
2022/10/21 00:14:43;;;;;;;;;;;;;;;22.11;48.31;101466.64;105613;1279;20024;-56
2022/10/21 00:17:10;;;;;;;;;5.00;5.00;;;;;22.10;48.20;101461.23;105562;1282;20552;-56
2022/10/21 00:19:38;;;;;;;;;9.00;9.00;;;;;22.10;48.28;101448.52;105658;1291;18116;-55
2022/10/21 00:22:06;;;;;;;;;8.00;8.00;;;;;22.10;48.19;101442.81;105636;1297;18474;-55
2022/10/21 00:24:33;;;;;;;;;10.00;10.00;;;;;22.10;48.16;101435.54;105574;1282;19771;-55
2022/10/21 00:27:01;;;;;;;;;9.00;9.00;;;;;22.10;48.19;101428.45;105508;1275;19759;-54
2022/10/21 00:29:28;;;;;;;;;11.00;10.00;;;;;22.11;48.15;101413.98;105471;1297;22237;-53
2022/10/21 00:31:56;;;;;;;;;9.50;9.00;;;;;22.10;48.14;101408.45;105491;1289;18125;-57
2022/10/21 00:34:23;;;;;;;;;11.00;11.00;;;;;22.09;48.09;101413.08;105559;1282;19331;-56
2022/10/21 00:36:50;;;;;;;;;7.00;7.00;;;;;22.10;48.17;101414.31;105592;1289;18600;-56
2022/10/21 00:39:17;;;;;;;;;14.00;13.00;;;;;22.10;48.12;101404.08;105516;1297;18453;-56
2022/10/21 00:41:44;;;;;;;;;7.00;7.00;;;;;22.09;48.16;101392.90;105557;1275;21109;-55
2022/10/21 00:44:12;;;;;;;;;6.00;6.00;;;;;22.09;47.98;101385.61;105523;1282;20959;-54
2022/10/21 00:46:39;;;;;;;;;6.00;6.00;;;;;22.09;47.94;101389.65;105529;1297;18226;-55
2022/10/21 00:49:06;;;;;;;;;11.00;10.00;;;;;22.09;48.02;101389.84;105509;1275;18482;-52
2022/10/21 00:51:33;;;;;;;;;9.50;9.50;;;;;22.09;47.98;101388.17;105420;1289;19315;-52
2022/10/21 00:54:01;;;;;;;;;14.00;14.00;;;;;22.08;47.91;101380.30;105473;1282;18701;-52
2022/10/21 00:56:28;;;;;;;;;10.00;10.00;;;;;22.08;47.93;101381.19;105473;1281;20231;-53
2022/10/21 00:58:55;;;;;;;;;9.50;9.00;;;;;22.10;48.02;101378.45;105506;1304;20627;-51
2022/10/21 01:01:22;;;;;;;;;9.50;9.50;;;;;22.09;48.08;101371.98;105522;1300;18488;-55
2022/10/21 01:03:50;;;;;;;;;9.00;9.00;;;;;22.07;47.87;101361.40;105483;1275;19669;-52
2022/10/21 01:06:17;;;;;;;;;9.00;9.00;;;;;22.07;47.93;101358.23;105493;1291;20839;-53
2022/10/21 01:08:45;;;;;;;;;7.00;7.00;;;;;22.08;47.95;101354.45;105576;1275;20658;-53
2022/10/21 01:11:12;;;;;;;;;9.00;9.00;;;;;22.09;47.75;101358.38;105488;1281;18512;-54
2022/10/21 01:13:39;;;;;;;;;7.00;7.00;;;;;22.08;47.82;101359.73;105600;1297;19271;-55
2022/10/21 01:16:07;;;;;;;;;10.00;10.00;;;;;22.08;47.93;101359.89;105522;1275;19647;-53
2022/10/21 01:18:34;;;;;;;;;8.00;8.00;;;;;22.07;47.96;101360.95;105548;1279;18616;-54
2022/10/21 01:21:01;;;;;;;;;10.00;10.00;;;;;22.07;47.74;101359.86;105495;1282;19974;-55
2022/10/21 01:23:28;;;;;;;;;11.00;11.00;;;;;22.08;47.98;101358.77;105437;1282;18442;-57
2022/10/21 01:25:55;;;;;;;;;5.00;5.00;;;;;22.07;47.86;101367.60;105448;1275;20248;-55
2022/10/21 01:28:23;;;;;;;;;12.00;10.50;;;;;22.08;47.80;101368.33;105474;1297;19584;-56
2022/10/21 01:30:50;;;;;;;;;;;;;;;22.07;48.01;101359.66;105509;1281;20122;-52
2022/10/21 01:33:17;;;;;;;;;9.00;9.00;;;;;22.07;47.71;101355.05;105505;1282;18500;-55
2022/10/21 01:35:44;;;;;;;;;9.00;9.00;;;;;22.07;47.78;101350.85;105489;1297;20611;-55
2022/10/21 01:38:12;;;;;;;;;11.00;11.00;;;;;22.06;47.92;101344.03;105496;1282;19945;-56
2022/10/21 01:40:39;;;;;;;;;10.00;10.00;;;;;22.06;47.94;101336.28;105533;1300;19943;-56
2022/10/21 01:43:06;;;;;;;;;11.00;10.50;;;;;22.07;47.80;101332.73;105482;1275;20981;-55
2022/10/21 01:45:33;;;;;;;;;8.00;7.00;;;;;22.07;47.85;101325.60;105460;1281;20301;-54
2022/10/21 01:48:01;;;;;;;;;16.00;14.00;;;;;22.06;47.83;101323.31;105483;1289;19971;-56
2022/10/21 01:50:28;;;;;;;;;14.00;13.00;;;;;22.06;47.72;101317.20;105368;1282;19523;-56
2022/10/21 01:52:55;;;;;;;;;6.50;6.00;;;;;22.06;47.92;101308.67;105438;1291;20088;-55
2022/10/21 01:55:22;;;;;;;;;9.00;9.00;;;;;22.03;47.91;101300.55;105406;1281;18884;-52
2022/10/21 01:57:49;;;;;;;;;10.00;10.00;;;;;22.05;47.71;101299.66;105501;1295;23048;-56
2022/10/21 02:00:17;;;;;;;;;5.00;5.00;;;;;22.05;47.79;101289.05;105447;1281;22588;-55
2022/10/21 02:02:44;;;;;;;;;6.00;6.00;;;;;22.05;47.85;101280.31;105476;1289;20225;-55
2022/10/21 02:05:11;;;;;;;;;9.00;9.00;;;;;22.05;47.76;101280.14;105571;1296;20807;-53
2022/10/21 02:07:38;;;;;;;;;10.00;10.00;;;;;22.04;47.84;101276.42;105540;1277;19938;-55
2022/10/21 02:10:06;;;;;;;;;9.00;9.00;;;;;22.05;47.68;101280.55;105478;1282;18848;-55
2022/10/21 02:12:33;;;;;;;;;6.00;5.00;;;;;22.05;47.86;101276.18;105467;1279;19294;-56
2022/10/21 02:15:00;;;;;;;;;6.00;6.00;;;;;22.04;47.83;101272.57;105493;1282;18415;-56
2022/10/21 02:17:28;;;;;;;;;5.00;5.00;;;;;22.03;47.89;101271.83;105398;1282;19984;-57
2022/10/21 02:19:55;;;;;;;;;5.00;5.00;;;;;22.03;47.71;101270.48;105465;1291;20781;-56
2022/10/21 02:22:23;;;;;;;;;9.50;9.00;;;;;22.03;47.76;101264.17;105539;1282;18345;-54
2022/10/21 02:24:51;;;;;;;;;;;;;;;22.04;47.86;101265.33;105514;1297;18828;-54
2022/10/21 02:27:18;;;;;;;;;10.00;10.00;;;;;22.04;47.70;101258.61;105423;1275;19300;-55
2022/10/21 02:29:45;;;;;;;;;13.00;13.00;;;;;22.03;47.76;101259.40;105436;1298;18392;-54
2022/10/21 02:32:12;;;;;;;;;14.00;13.00;;;;;22.03;47.66;101259.77;105588;1289;23649;-54
2022/10/21 02:34:40;;;;;;;;;14.00;14.00;;;;;22.02;47.78;101249.14;105493;1300;20846;-52
2022/10/21 02:37:08;;;;;;;;;9.00;9.00;;;;;22.03;47.53;101243.40;105515;1289;18480;-54
2022/10/21 02:39:35;;;;;;;;;10.50;10.50;;;;;22.04;47.63;101248.23;105524;1275;18568;-55
2022/10/21 02:42:03;;;;;;;;;13.00;13.00;;;;;22.03;47.68;101245.11;105484;1281;20756;-56
2022/10/21 02:44:30;;;;;;;;;6.00;6.00;;;;;22.03;47.66;101246.40;105583;1281;18503;-53
2022/10/21 02:46:57;;;;;;;;;15.00;15.00;;;;;22.03;47.72;101247.02;105587;1272;21189;-55
2022/10/21 02:49:24;;;;;;;;;17.50;16.50;;;;;22.03;47.69;101243.30;105460;1298;22615;-52
2022/10/21 02:51:52;;;;;;;;;13.00;13.00;;;;;22.02;47.78;101232.63;105510;1297;18526;-56
2022/10/21 02:54:19;;;;;;;;;16.00;14.00;;;;;22.02;47.70;101237.70;105473;1275;18823;-57
2022/10/21 02:56:46;;;;;;;;;6.00;6.00;;;;;22.02;47.69;101241.33;105487;1275;22097;-55
2022/10/21 02:59:13;;;;;;;;;11.00;11.00;;;;;22.02;47.66;101237.37;105471;1289;18631;-52
2022/10/21 03:01:40;;;;;;;;;15.00;14.00;;;;;22.01;47.71;101237.06;105606;1297;18547;-57
2022/10/21 03:04:08;;;;;;;;;12.00;11.00;;;;;22.02;47.68;101231.23;105585;1289;19301;-57
2022/10/21 03:06:35;;;;;;;;;6.00;5.00;;;;;22.01;47.58;101226.15;105527;1289;18497;-52
2022/10/21 03:09:04;;;;;;;;;13.00;11.00;;;;;22.02;47.77;101231.36;105451;1282;18524;-54
2022/10/21 03:11:31;;;;;;;;;9.00;9.00;;;;;22.00;47.55;101226.80;105470;1289;22729;-55
2022/10/21 03:13:58;;;;;;;;;5.00;4.00;;;;;22.01;47.60;101225.97;105495;1301;21015;-53
2022/10/21 03:16:25;;;;;;;;;13.00;13.00;;;;;22.01;47.61;101225.46;105504;1282;20156;-53
2022/10/21 03:18:53;;;;;;;;;9.00;9.00;;;;;22.00;47.57;101217.52;105492;1290;19274;-56
2022/10/21 03:21:20;;;;;;;;;10.00;10.00;;;;;22.00;47.64;101212.68;105479;1282;20447;-54
2022/10/21 03:23:47;;;;;;;;;8.00;8.00;;;;;22.01;47.84;101216.94;105553;1291;23119;-55
2022/10/21 03:26:14;;;;;;;;;6.00;6.00;;;;;22.01;47.61;101218.54;105531;1298;21123;-52
2022/10/21 03:28:42;;;;;;;;;7.00;5.00;;;;;22.00;47.69;101211.51;105480;1292;19908;-56
2022/10/21 03:31:09;;;;;;;;;6.00;6.00;;;;;22.00;47.58;101214.08;105447;1297;20901;-56
2022/10/21 03:33:36;;;;;;;;;12.00;12.00;;;;;22.01;47.69;101219.70;105557;1281;22231;-55
2022/10/21 03:36:03;;;;;;;;;11.00;10.00;;;;;22.00;47.53;101212.30;105591;1290;19898;-56
2022/10/21 03:38:30;;;;;;;;;10.00;10.00;;;;;22.00;47.63;101214.88;105577;1289;20342;-55
2022/10/21 03:40:58;;;;;;;;;11.00;11.00;;;;;22.00;47.70;101213.59;105720;1291;20927;-54
2022/10/21 03:43:25;;;;;;;;;11.00;11.00;;;;;22.00;47.70;101213.92;105601;1291;22160;-55
2022/10/21 03:45:52;;;;;;;;;10.00;10.00;;;;;21.99;47.70;101214.73;105582;1291;20221;-52
2022/10/21 03:48:19;;;;;;;;;9.50;9.00;;;;;22.00;47.57;101209.25;105611;1289;21030;-56
2022/10/21 03:50:47;;;;;;;;;7.00;7.00;;;;;22.00;47.64;101212.36;105558;1282;18847;-55
2022/10/21 03:53:14;;;;;;;;;10.00;10.00;;;;;22.00;47.72;101215.77;105581;1289;21720;-53
2022/10/21 03:55:41;;;;;;;;;8.00;8.00;;;;;21.99;47.59;101215.48;105628;1298;22675;-55
2022/10/21 03:58:08;;;;;;;;;6.00;6.00;;;;;21.99;47.49;101209.10;105637;1279;19986;-55
2022/10/21 04:00:36;;;;;;;;;;;;;;;21.99;47.65;101205.83;105641;1289;18714;-52
2022/10/21 04:03:03;;;;;;;;;12.00;12.00;;;;;21.99;47.63;101209.52;105616;1275;20076;-55
2022/10/21 04:05:30;;;;;;;;;14.00;13.00;;;;;22.00;47.53;101205.39;105488;1282;22163;-54
2022/10/21 04:07:57;;;;;;;;;13.00;13.00;;;;;21.98;47.55;101202.70;105652;1289;23412;-53
2022/10/21 04:10:24;;;;;;;;;12.00;12.00;;;;;21.98;47.62;101205.22;105560;1288;21270;-55
2022/10/21 04:12:52;;;;;;;;;10.00;10.00;;;;;21.99;47.51;101204.09;105598;1289;18465;-53
2022/10/21 04:15:19;;;;;;;;;10.33;10.00;;;;;21.99;47.44;101198.94;105557;1275;19993;-55
2022/10/21 04:17:46;;;;;;;;;10.00;10.00;;;;;21.99;47.61;101195.27;105571;1281;20825;-52
2022/10/21 04:20:14;;;;;;;;;8.00;8.00;;;;;21.98;47.44;101191.55;105615;1297;19175;-56
2022/10/21 04:22:41;;;;;;;;;8.50;7.00;;;;;21.98;47.60;101193.25;105622;1291;18537;-56
2022/10/21 04:25:08;;;;;;;;;6.00;6.00;;;;;21.98;47.58;101177.96;105604;1282;19518;-54
2022/10/21 04:27:35;;;;;;;;;9.00;9.00;;;;;21.97;47.45;101169.30;105600;1297;22994;-52
2022/10/21 04:30:02;;;;;;;;;10.00;10.00;;;;;21.97;47.62;101166.06;105591;1291;19827;-54
2022/10/21 04:32:30;;;;;;;;;8.00;8.00;;;;;21.98;47.54;101162.16;105572;1295;19464;-55
2022/10/21 04:34:57;;;;;;;;;14.50;14.00;;;;;21.97;47.67;101158.94;105614;1297;20322;-56
2022/10/21 04:37:24;;;;;;;;;13.00;13.00;;;;;21.97;47.49;101143.89;105581;1301;22633;-54
2022/10/21 04:39:51;;;;;;;;;9.00;9.00;;;;;21.97;47.51;101139.14;105613;1298;19508;-52
2022/10/21 04:42:19;;;;;;;;;6.00;6.00;;;;;21.96;47.43;101132.46;105607;1298;18512;-54
2022/10/21 04:44:46;;;;;;;;;10.00;10.00;;;;;21.96;47.61;101127.96;105584;1297;20045;-54
2022/10/21 04:47:13;;;;;;;;;8.00;8.00;;;;;21.96;47.62;101117.29;105554;1297;20941;-54
2022/10/21 04:49:40;;;;;;;;;17.00;17.00;;;;;21.96;47.62;101115.57;105613;1297;18947;-53
2022/10/21 04:52:08;;;;;;;;;9.50;9.50;;;;;21.96;47.52;101113.09;105636;1282;18648;-54
2022/10/21 04:54:35;;;;;;;;;9.00;7.00;;;;;21.96;47.50;101111.21;105589;1282;19288;-54
2022/10/21 04:57:02;;;;;;;;;6.00;6.00;;;;;21.96;47.38;101106.47;105563;1298;18318;-55
2022/10/21 04:59:29;;;;;;;;;6.00;6.00;;;;;21.95;47.40;101105.15;105591;1297;19971;-52
2022/10/21 05:01:57;;;;;;;;;12.00;12.00;;;;;21.95;47.59;101110.39;105585;1299;21220;-57
2022/10/21 05:04:24;;;;;;;;;14.00;13.50;;;;;21.96;47.53;101113.19;105551;1297;18369;-55
2022/10/21 05:06:51;;;;;;;;;17.00;15.00;;;;;21.95;47.29;101104.23;105581;1275;18597;-56
2022/10/21 05:09:18;;;;;;;;;9.00;8.50;;;;;21.95;47.49;101103.71;105567;1297;21041;-51
2022/10/21 05:11:45;;;;;;;;;4.00;4.00;;;;;21.95;47.36;101102.59;105595;1298;18518;-52
2022/10/21 05:14:13;;;;;;;;;11.00;11.00;;;;;21.94;47.46;101097.40;105587;1283;22250;-54
2022/10/21 05:16:40;;;;;;;;;7.00;7.00;;;;;21.95;47.51;101099.55;105538;1297;20884;-55
2022/10/21 05:19:07;;;;;;;;;;;;;;;21.95;47.36;101092.83;105569;1282;19822;-56
2022/10/21 05:21:34;;;;;;;;;6.00;6.00;;;;;21.96;47.28;101093.98;105572;1289;19614;-55
2022/10/21 05:24:02;;;;;;;;;10.00;10.00;;;;;21.96;47.36;101086.55;105594;1291;21224;-55
2022/10/21 05:26:29;;;;;;;;;9.00;9.00;;;;;21.95;47.49;101081.85;105616;1282;18422;-56
2022/10/21 05:28:57;;;;;;;;;9.00;9.00;;;;;21.96;47.30;101080.93;105656;1284;22220;-52
2022/10/21 05:31:24;;;;;;;;;4.00;4.00;;;;;21.94;47.53;101086.16;105612;1282;20630;-55
2022/10/21 05:33:51;;;;;;;;;9.00;9.00;;;;;21.94;47.17;101091.77;105620;1292;18527;-58
2022/10/21 05:36:19;;;;;;;;;11.00;11.00;;;;;21.95;47.28;101088.12;105621;1275;22864;-55
2022/10/21 05:38:46;;;;;;;;;9.00;9.00;;;;;21.95;47.37;101083.55;105570;1291;20719;-53
2022/10/21 05:41:13;;;;;;;;;10.00;10.00;;;;;21.95;47.37;101076.45;105646;1282;21804;-56
2022/10/21 05:43:40;;;;;;;;;6.00;6.00;;;;;21.94;47.29;101077.98;105572;1291;23433;-54
2022/10/21 05:46:08;;;;;;;;;10.00;10.00;;;;;21.94;47.27;101080.14;105543;1275;21011;-56
2022/10/21 05:48:36;;;;;;;;;9.00;9.00;;;;;21.97;47.32;101078.04;105545;1275;18438;-55
2022/10/21 05:51:03;;;;;;;;;11.00;11.00;;;;;21.97;47.50;101074.48;105592;1282;20571;-56
2022/10/21 05:53:30;;;;;;;;;9.50;9.00;;;;;21.98;47.62;101074.66;105575;1282;19506;-55
2022/10/21 05:55:57;;;;;;;;;;;;;;;21.98;47.80;101077.70;105628;1298;19922;-51
2022/10/21 05:58:24;;;;;;;;;;;;;;;21.98;47.51;101074.04;105615;1295;18201;-56
2022/10/21 06:00:53;;;;;;;;;6.00;6.00;;;;;22.01;47.67;101073.75;105591;1290;20782;-54
2022/10/21 06:03:21;;;;;;;;;7.00;7.00;;;;;22.03;47.83;101078.70;105521;1271;19281;-56
2022/10/21 06:05:48;;;;;;;;;3.00;3.00;;;;;22.04;47.81;101072.24;105621;1282;20207;-56
2022/10/21 06:08:15;;;;;;;;;6.00;6.00;;;;;22.03;47.98;101068.73;105478;1282;22156;-56
2022/10/21 06:10:43;;;;;;;;;;;;;;;22.02;48.19;101064.31;105567;1298;20476;-56
2022/10/21 06:13:10;;;;;;;;;7.00;6.50;;;;;22.04;48.21;101070.68;105568;1282;18283;-55
2022/10/21 06:15:37;;;;;;;;;6.50;5.50;;;;;22.04;48.09;101065.36;105561;1281;25149;-54
2022/10/21 06:18:04;;;;;;;;;9.50;9.50;;;;;22.04;48.10;101063.71;105606;1275;19901;-52
2022/10/21 06:20:32;;;;;;;;;6.00;6.00;;;;;22.04;48.15;101059.38;105565;1289;19972;-55
2022/10/21 06:22:59;;;;;;;;;5.00;5.00;;;;;22.08;48.24;101060.75;105623;1297;19239;-55
2022/10/21 06:25:26;;;;;;;;;6.00;6.00;;;;;22.08;48.91;101054.48;105581;1298;19587;-55
2022/10/21 06:27:53;;;;;;;;;;;;;;;22.07;49.10;101059.92;105557;1283;19883;-51
2022/10/21 06:30:21;;;;;;;;;7.00;6.00;;;;;22.07;49.29;101061.70;105600;1279;19171;-55
2022/10/21 06:32:49;;;;;;;;;7.00;7.00;;;;;22.06;49.82;101053.02;105576;1283;19405;-54
2022/10/21 06:35:16;;;;;;;;;4.00;3.00;;;;;22.07;50.47;101052.11;105560;1282;19930;-55
2022/10/21 06:37:43;;;;;;;;;6.00;6.00;;;;;22.08;50.40;101053.73;105606;1298;20824;-57
2022/10/21 06:40:10;;;;;;;;;11.00;9.00;;;;;22.09;50.81;101052.07;105548;1279;18594;-57
2022/10/21 06:42:38;;;;;;;;;5.00;5.00;;;;;22.09;50.74;101051.70;105558;1297;18730;-56
2022/10/21 06:45:05;;;;;;;;;9.00;9.00;;;;;22.08;50.99;101049.98;105586;1282;19287;-56
2022/10/21 06:47:32;;;;;;;;;5.00;5.00;;;;;22.07;51.07;101051.66;105582;1298;18429;-53
2022/10/21 06:50:01;;;;;;;;;7.00;6.00;;;;;22.07;51.22;101045.73;105594;1289;20105;-51
2022/10/21 06:52:29;;;;;;;;;10.00;9.00;;;;;22.08;50.95;101040.45;105592;1301;19699;-55
2022/10/21 06:54:56;;;;;;;;;9.00;9.00;;;;;22.09;50.85;101036.86;105582;1288;19832;-52
2022/10/21 06:57:23;;;;;;;;;11.00;11.00;;;;;22.11;50.65;101031.56;105578;1291;19954;-56
2022/10/21 06:59:51;;;;;;;;;8.00;7.00;;;;;22.12;50.72;101020.60;105541;1297;19822;-55
2022/10/21 07:02:18;;;;;;;;;6.00;6.00;;;;;22.12;50.64;101014.92;105570;1282;22747;-56
2022/10/21 07:04:47;;;;;;;;;6.50;6.50;;;;;22.12;50.66;101011.27;105591;1297;18662;-55
2022/10/21 07:07:15;;;;;;;;;8.00;8.00;;;;;22.11;50.45;101001.88;105616;1289;21905;-56
2022/10/21 07:09:42;;;;;;;;;9.00;9.00;;;;;22.10;50.37;100995.39;105579;1289;21448;-56
2022/10/21 07:12:09;;;;;;;;;6.00;5.00;;;;;22.09;50.11;100999.65;105482;1282;20882;-55
2022/10/21 07:14:36;;;;;;;;;6.00;6.00;;;;;22.07;50.10;100996.72;105478;1298;20840;-56
2022/10/21 07:17:04;;;;;;;;;;;;;;;22.08;49.83;100989.01;105541;1298;19883;-56
2022/10/21 07:19:31;;;;;;;;;8.00;8.00;;;;;22.07;49.91;100988.95;105484;1284;18104;-56
2022/10/21 07:21:58;;;;;;;;;6.00;6.00;;;;;22.06;49.62;100979.33;105474;1282;19552;-56
2022/10/21 07:24:25;;;;;;;;;;;;;;;22.06;49.36;100976.66;105492;1275;18437;-55
2022/10/21 07:26:52;;;;;;;;;7.50;7.50;;;;;22.08;49.44;100972.09;105462;1282;22997;-58
2022/10/21 07:29:20;;;;;;;;;;;;;;;22.11;49.48;100969.60;105498;1282;20985;-55
2022/10/21 07:31:47;;;;;;;;;9.00;7.50;;;;;22.13;49.58;100974.04;105516;1301;18479;-54
2022/10/21 07:34:15;;;;;;;;;6.00;6.00;;;;;22.15;49.35;100974.05;105514;1297;20010;-57
2022/10/21 07:36:42;;;;;;;;;9.50;9.50;;;;;22.15;49.18;100970.19;105525;1282;19613;-53
2022/10/21 07:39:09;;;;;;;;;7.00;7.00;;;;;22.16;49.23;100970.87;105530;1291;18447;-56
2022/10/21 07:41:37;;;;;;;;;7.00;6.00;;;;;22.16;49.15;100978.51;105450;1291;20196;-55
2022/10/21 07:44:04;;;;;;;;;9.00;9.00;;;;;22.16;49.06;100976.05;105601;1284;22457;-54
2022/10/21 07:46:31;;;;;;;;;9.00;9.00;;;;;22.17;49.14;100978.23;105492;1295;18974;-55
2022/10/21 07:48:58;;;;;;;;;7.00;6.00;;;;;22.17;49.19;100973.25;105435;1283;20044;-53
2022/10/21 07:51:26;;;;;;;;;6.00;6.00;;;;;22.17;49.22;100977.64;105468;1297;19071;-53
2022/10/21 07:53:53;;;;;;;;;6.00;6.00;;;;;22.16;49.18;100978.62;105560;1297;18493;-55
2022/10/21 07:56:20;;;;;;;;;5.00;5.00;;;;;22.16;49.11;100980.19;105608;1275;21094;-56
2022/10/21 07:58:47;;;;;;;;;11.00;9.00;;;;;22.15;48.93;100975.45;105615;1289;19777;-54
2022/10/21 08:01:15;;;;;;;;;4.00;4.00;;;;;22.16;49.05;100967.80;105491;1285;112821;-53
2022/10/21 08:03:42;;;;;;;;;9.00;9.00;;;;;22.15;48.99;100965.86;105563;1285;24281;-55
2022/10/21 08:06:09;;;;;;;;;10.00;9.00;;;;;22.16;49.02;100953.73;105515;1297;19235;-56
2022/10/21 08:08:36;;;;;;;;;6.00;6.00;;;;;22.16;48.94;100952.61;105508;1275;19643;-52
2022/10/21 08:11:04;;;;;;;;;8.50;6.50;;;;;22.15;48.83;100943.48;105597;1292;22683;-56
2022/10/21 08:13:31;;;;;;;;;9.00;9.00;;;;;22.12;48.85;100939.58;105505;1282;19312;-55
2022/10/21 08:15:58;;;;;;;;;7.00;7.00;;;;;22.11;48.82;100943.52;105500;1276;22327;-56
2022/10/21 08:18:25;;;;;;;;;9.00;9.00;;;;;22.10;48.92;100941.11;105524;1291;20659;-57
2022/10/21 08:20:53;;;;;;;;;7.00;7.00;;;;;22.12;48.87;100940.86;105511;1288;22723;-57
2022/10/21 08:23:20;;;;;;;;;5.00;5.00;;;;;22.13;48.82;100933.66;105538;1282;18493;-55
2022/10/21 08:25:47;;;;;;;;;7.00;7.00;;;;;22.12;48.75;100930.27;105509;1284;19959;-57
2022/10/21 08:28:14;;;;;;;;;13.00;10.00;;;;;22.13;48.45;100930.94;105442;1282;22991;-56
2022/10/21 08:30:42;;;;;;;;;;;;;;;22.11;48.49;100931.44;105527;1289;18296;-56
2022/10/21 08:33:09;;;;;;;;;10.00;10.00;;;;;22.11;48.50;100921.07;105528;1283;19917;-55
2022/10/21 08:35:36;;;;;;;;;9.50;9.00;;;;;22.10;48.61;100917.77;105536;1298;19419;-54
2022/10/21 08:38:03;;;;;;;;;9.00;7.00;;;;;22.11;48.87;100924.04;105580;1291;20130;-57
2022/10/21 08:40:31;;;;;;;;;9.00;9.00;;;;;22.10;48.71;100917.42;105515;1282;18499;-56
2022/10/21 08:42:58;;;;;;;;;9.00;9.00;;;;;22.09;48.65;100908.61;105551;1281;20933;-55
2022/10/21 08:45:25;;;;;;;;;7.00;7.00;;;;;22.08;48.91;100903.77;105577;1282;18356;-54
2022/10/21 08:47:53;;;;;;;;;7.00;7.00;;;;;22.08;48.83;100913.42;105598;1275;20267;-55
2022/10/21 08:50:21;;;;;;;;;9.00;9.00;;;;;22.08;48.82;100910.53;105543;1283;22740;-55
2022/10/21 08:52:48;;;;;;;;;9.00;9.00;;;;;22.08;48.69;100909.44;105569;1282;19820;-56
2022/10/21 08:55:15;;;;;;;;;7.00;7.00;;;;;22.08;48.92;100907.46;105551;1275;20324;-56
2022/10/21 08:57:42;;;;;;;;;6.00;5.00;;;;;22.07;48.70;100899.91;105494;1275;19138;-56
2022/10/21 09:00:10;;;;;;;;;7.00;7.00;;;;;22.07;48.82;100898.63;105538;1282;19620;-56
2022/10/21 09:02:37;;;;;;;;;7.00;7.00;;;;;22.06;48.88;100892.59;105552;1297;18485;-56
2022/10/21 09:05:05;;;;;;;;;9.00;9.00;;;;;22.06;48.71;100886.80;105615;1282;21052;-56
2022/10/21 09:07:32;;;;;;;;;;;;;;;22.06;48.79;100880.06;105563;1289;21797;-56
2022/10/21 09:09:59;;;;;;;;;9.00;8.00;;;;;22.05;48.79;100881.98;105575;1282;19566;-56
2022/10/21 09:12:27;;;;;;;;;7.50;7.50;;;;;22.05;48.68;100888.19;105583;1282;19234;-56
2022/10/21 09:14:56;;;;;;;;;7.00;7.00;;;;;22.05;48.45;100890.55;105558;1281;20111;-56
2022/10/21 09:17:23;;;;;;;;;6.00;6.00;;;;;22.04;48.64;100896.42;105523;1275;22686;-57
2022/10/21 09:19:50;;;;;;;;;5.00;5.00;;;;;22.04;48.59;100900.15;105550;1294;21014;-57
2022/10/21 09:22:17;;;;;;;;;7.00;7.00;;;;;22.04;48.39;100899.15;105537;1282;18447;-56
2022/10/21 09:24:45;;;;;;;;;;;;;;;22.05;48.53;100899.82;105533;1275;18727;-56
2022/10/21 09:27:12;;;;;;;;;6.00;6.00;;;;;22.03;48.60;100895.48;105526;1282;20052;-53
2022/10/21 09:29:39;;;;;;;;;8.00;8.00;;;;;22.04;48.45;100895.95;105562;1274;18967;-56
2022/10/21 09:32:06;;;;;;;;;6.50;6.00;;;;;22.04;48.33;100893.96;105642;1297;18818;-52
2022/10/21 09:34:34;;;;;;;;;7.00;7.00;;;;;22.04;48.36;100887.58;105529;1282;21081;-55
2022/10/21 09:37:01;;;;;;;;;9.50;9.00;;;;;22.04;48.43;100891.77;105489;1275;21581;-57
2022/10/21 09:39:28;;;;;;;;;6.00;6.00;;;;;22.04;48.34;100900.79;105559;1282;20220;-56
2022/10/21 09:41:55;;;;;;;;;7.00;7.00;;;;;22.04;48.29;100901.92;105540;1275;19271;-54
2022/10/21 09:44:23;;;;;;;;;9.00;7.00;;;;;22.04;48.25;100903.16;105479;1275;18336;-56
2022/10/21 09:46:50;;;;;;;;;9.00;7.50;;;;;22.03;48.26;100902.57;105571;1282;18715;-54
2022/10/21 09:49:17;;;;;;;;;7.50;7.00;;;;;22.03;48.38;100906.05;105561;1282;20828;-53
2022/10/21 09:51:45;;;;;;;;;11.00;10.00;;;;;22.04;48.29;100901.78;105522;1279;19521;-54
2022/10/21 09:54:12;;;;;;;;;9.00;9.00;;;;;22.03;48.32;100900.09;105569;1282;18599;-54
2022/10/21 09:56:39;;;;;;;;;9.00;9.00;;;;;22.03;48.24;100899.29;105533;1275;19514;-54
2022/10/21 09:59:06;;;;;;;;;7.00;7.00;;;;;22.02;48.17;100901.59;105637;1298;18883;-55
2022/10/21 10:01:34;;;;;;;;;7.00;7.00;;;;;22.03;48.19;100903.67;105491;1282;20054;-57
2022/10/21 10:04:01;;;;;;;;;9.00;7.00;;;;;22.02;48.04;100902.89;105477;1281;19592;-55
2022/10/21 10:06:28;;;;;;;;;5.00;5.00;;;;;22.03;47.85;100906.47;105524;1281;20281;-54
2022/10/21 10:08:56;;;;;;;;;7.50;6.00;;;;;22.02;48.10;100909.31;105557;1291;18680;-53
2022/10/21 10:11:23;;;;;;;;;9.00;7.00;;;;;22.02;48.09;100901.46;105574;1282;19172;-53
2022/10/21 10:13:50;;;;;;;;;7.00;7.00;;;;;22.02;48.07;100902.48;105613;1275;19918;-55
2022/10/21 10:16:17;;;;;;;;;9.00;9.00;;;;;22.02;48.16;100891.63;105583;1297;20524;-55
2022/10/21 10:18:45;;;;;;;;;13.00;11.00;;;;;22.02;47.95;100889.11;105555;1275;21157;-56
2022/10/21 10:21:12;;;;;;;;;7.00;7.00;;;;;22.02;48.02;100885.97;105527;1275;19791;-57
2022/10/21 10:23:39;;;;;;;;;7.50;6.50;;;;;22.02;48.02;100881.43;105504;1275;20125;-56
2022/10/21 10:26:06;;;;;;;;;9.00;7.00;;;;;22.01;48.12;100882.40;105584;1297;20728;-56
2022/10/21 10:28:33;;;;;;;;;8.00;7.00;;;;;22.02;47.93;100886.81;105493;1275;18432;-56
2022/10/21 10:31:01;;;;;;;;;;;;;;;22.03;47.89;100883.13;105496;1297;18722;-56
2022/10/21 10:33:28;;;;;;;;;9.00;7.00;;;;;22.03;48.07;100877.33;105499;1298;19623;-56
2022/10/21 10:35:56;;;;;;;;;7.00;7.00;;;;;22.02;48.16;100868.71;105526;1298;19401;-56
2022/10/21 10:38:23;;;;;;;;;9.50;9.50;;;;;22.02;48.07;100860.94;105455;1282;22233;-58
2022/10/21 10:40:51;;;;;;;;;7.00;7.00;;;;;22.02;47.94;100861.20;105545;1294;20829;-56
2022/10/21 10:43:18;;;;;;;;;;;;;;;22.02;47.84;100853.26;105498;1282;21118;-57
2022/10/21 10:45:45;;;;;;;;;10.00;8.00;;;;;22.03;47.96;100852.05;105472;1275;19759;-51
2022/10/21 10:48:12;;;;;;;;;7.00;7.00;;;;;22.04;47.88;100849.16;105535;1282;23540;-59
2022/10/21 10:50:40;;;;;;;;;8.00;8.00;;;;;22.02;47.68;100852.80;105416;1279;18737;-53
2022/10/21 10:53:07;;;;;;;;;9.00;7.00;;;;;22.03;47.94;100858.89;105615;1279;18746;-55
2022/10/21 10:55:34;;;;;;;;;10.00;9.00;;;;;22.04;47.95;100861.70;105537;1289;21007;-55
2022/10/21 10:58:01;;;;;;;;;10.00;10.00;;;;;22.06;48.18;100861.48;105466;1294;22437;-58
2022/10/21 11:00:29;;;;;;;;;10.00;9.00;;;;;22.04;47.98;100851.10;105523;1275;20871;-58
2022/10/21 11:02:56;;;;;;;;;;;;;;;22.03;47.97;100846.84;105565;1275;19241;-60
2022/10/21 11:05:23;;;;;;;;;7.00;6.00;;;;;22.04;47.79;100843.30;105620;1297;18489;-58
2022/10/21 11:07:50;;;;;;;;;8.00;8.00;;;;;22.03;47.86;100842.94;105587;1291;18878;-55
2022/10/21 11:10:18;;;;;;;;;;;;;;;22.04;47.96;100843.38;105486;1275;22258;-56
2022/10/21 11:12:45;;;;;;;;;9.00;9.00;;;;;22.06;47.78;100837.75;105494;1284;19626;-56
2022/10/21 11:15:12;;;;;;;;;;;;;;;22.08;47.97;100830.45;105486;1282;18672;-56
2022/10/21 11:17:39;;;;;;;;;9.00;7.00;;;;;22.10;48.01;100821.52;105462;1281;22291;-59